Time;durP1;ratioP1;P1;durP2;ratioP2;P2;SDS_P1;SDS_P2;PMS_P1;PMS_P2;Temp;Humidity;BMP_temperature;BMP_pressure;BME280_temperature;BME280_humidity;BME280_pressure;Samples;Min_cycle;Max_cycle;Signal;HPM_P1;HPM_P2
2021/05/02 00:00:24;;;;;;;12.37;9.57;;;15.50;76.50;;;15.99;39.86;100967.53;4877995;28;99887;-53
2021/05/02 00:02:51;;;;;;;11.17;10.07;;;15.50;75.60;;;15.90;39.58;100963.56;4872929;28;97739;-54
2021/05/02 00:05:20;;;;;;;11.50;10.03;;;15.40;76.00;;;15.89;40.83;100963.63;4878333;28;97530;-56
2021/05/02 00:07:47;;;;;;;12.20;10.70;;;15.20;77.60;;;15.89;40.81;100959.16;4866910;28;97698;-56
2021/05/02 00:10:15;;;;;;;12.47;11.00;;;15.30;78.70;;;15.90;40.44;100965.34;4876668;28;97504;-55
2021/05/02 00:12:41;;;;;;;11.47;10.37;;;15.30;77.50;;;15.85;40.77;100962.09;4883306;28;99524;-56
2021/05/02 00:15:11;;;;;;;5.07;2.73;;;15.30;78.90;;;15.90;40.76;100954.72;4892943;28;98563;-53
2021/05/02 00:17:40;;;;;;;11.83;10.10;;;15.30;79.00;;;15.91;40.75;100961.75;4854419;28;98345;-55
2021/05/02 00:20:08;;;;;;;6.67;5.00;;;15.40;77.40;;;15.91;40.97;100956.44;4861215;28;99113;-52
2021/05/02 00:22:37;;;;;;;5.87;4.63;;;15.30;77.90;;;15.92;40.74;100969.69;4893095;28;96984;-56
2021/05/02 00:25:07;;;;;;;5.30;3.17;;;15.30;78.50;;;15.93;40.82;100966.06;4875838;28;98318;-56
2021/05/02 00:27:33;;;;;;;9.13;8.27;;;15.30;78.00;;;15.92;41.04;100968.81;4874369;28;97070;-55
2021/05/02 00:29:59;;;;;;;10.97;9.93;;;15.30;78.70;;;15.89;40.69;100968.97;4870690;28;98413;-57
2021/05/02 00:32:28;;;;;;;11.97;9.40;;;15.20;78.60;;;15.85;40.83;100972.72;4879067;28;98172;-55
2021/05/02 00:34:55;;;;;;;5.20;4.00;;;15.10;78.80;;;15.77;41.37;100971.34;4871537;28;100199;-56
2021/05/02 00:37:20;;;;;;;6.33;3.63;;;14.90;80.00;;;15.80;41.50;100964.13;4876974;28;100218;-54
2021/05/02 00:39:47;;;;;;;6.27;5.03;;;15.10;81.10;;;15.75;41.13;100973.19;4855690;28;98823;-56
2021/05/02 00:42:26;;;;;;;9.27;8.33;;;14.90;80.00;;;15.75;41.01;100973.19;4895606;28;97085;-53
2021/05/02 00:45:04;;;;;;;11.90;10.20;;;14.90;79.60;;;15.72;41.43;100989.31;4857237;28;97567;-57
2021/05/02 00:47:38;;;;;;;12.90;10.50;;;14.90;81.70;;;15.74;41.19;100987.44;4877158;28;99205;-53
2021/05/02 00:50:11;;;;;;;6.77;6.13;;;15.00;81.00;;;15.74;40.34;100976.78;4871947;28;102984;-50
2021/05/02 00:52:46;;;;;;;16.33;13.40;;;15.10;79.90;;;15.75;41.12;100989.16;4883442;28;98153;-52
2021/05/02 00:55:16;;;;;;;16.93;15.20;;;15.10;80.30;;;15.75;41.20;100983.84;4890950;28;98695;-53
2021/05/02 00:57:50;;;;;;;15.67;14.17;;;15.10;79.10;;;15.80;41.07;100977.44;4873259;28;99997;-53
2021/05/02 01:00:19;;;;;;;15.67;14.07;;;15.20;79.40;;;15.83;41.35;100977.28;4859040;28;100103;-55
2021/05/02 01:02:49;;;;;;;15.33;13.83;;;15.20;79.70;;;15.83;41.17;100982.59;4879562;28;98218;-53
2021/05/02 01:05:15;;;;;;;16.67;14.97;;;15.20;79.20;;;15.86;41.14;100990.41;4890094;28;99169;-57
2021/05/02 01:07:43;;;;;;;17.90;15.60;;;15.30;79.50;;;15.84;40.75;100985.16;4886858;28;99382;-58
2021/05/02 01:10:17;;;;;;;17.10;15.27;;;15.20;78.50;;;15.83;41.13;100985.25;4876172;28;98494;-56
2021/05/02 01:12:54;;;;;;;16.97;14.87;;;15.20;79.70;;;15.76;41.28;100998.84;4888869;28;99155;-55
2021/05/02 01:15:33;;;;;;;18.10;16.20;;;15.20;80.00;;;15.70;41.09;100991.19;4888212;28;98830;-54
2021/05/02 01:18:07;;;;;;;17.63;15.83;;;15.20;79.00;;;15.53;41.76;100993.84;4889789;28;98074;-57
2021/05/02 01:20:41;;;;;;;16.93;15.23;;;14.90;81.30;;;15.34;41.54;100993.06;4892616;28;98109;-58
2021/05/02 01:23:11;;;;;;;17.97;16.00;;;14.70;80.60;;;15.12;42.40;101003.88;4876519;28;97450;-57
2021/05/02 01:25:37;;;;;;;17.10;15.50;;;14.50;81.90;;;14.86;42.87;101000.66;4871083;28;100579;-56
2021/05/02 01:28:04;;;;;;;17.63;15.83;;;14.20;82.70;;;14.76;43.53;101004.72;4895179;28;97655;-56
2021/05/02 01:30:31;;;;;;;18.43;16.43;;;14.00;84.40;;;14.56;43.71;100997.66;4875074;28;100678;-53
2021/05/02 01:32:57;;;;;;;15.93;14.33;;;13.90;84.30;;;14.37;43.49;100999.44;4891303;28;99659;-57
2021/05/02 01:35:23;;;;;;;16.77;15.00;;;13.80;84.30;;;14.11;43.94;101007.72;4878164;28;98709;-56
2021/05/02 01:37:51;;;;;;;17.27;14.97;;;13.50;84.60;;;13.85;44.70;101007.06;4890269;28;97393;-56
2021/05/02 01:40:20;;;;;;;16.03;14.40;;;13.20;85.70;;;13.66;45.31;101003.50;4881139;28;99990;-56
2021/05/02 01:42:49;;;;;;;16.70;14.90;;;13.00;86.20;;;13.41;45.93;101011.59;4868187;28;98589;-54
2021/05/02 01:45:15;;;;;;;18.80;14.60;;;12.80;87.30;;;13.24;45.30;101016.75;4858977;28;98172;-58
2021/05/02 01:47:49;;;;;;;18.57;15.33;;;12.70;87.70;;;13.40;46.11;101018.69;4873923;28;99899;-54
2021/05/02 01:50:16;;;;;;;18.57;15.30;;;12.80;88.70;;;13.22;46.62;101014.16;4896927;28;97610;-55
2021/05/02 01:52:53;;;;;;;17.13;15.10;;;12.60;89.30;;;13.22;46.58;101016.81;4873344;28;99361;-56
2021/05/02 01:55:21;;;;;;;16.97;15.17;;;12.60;89.50;;;13.19;46.87;101022.25;4878656;28;97515;-57
2021/05/02 01:57:49;;;;;;;18.20;16.23;;;12.60;90.00;;;13.19;46.57;101024.91;4883173;28;100588;-55
2021/05/02 02:00:39;;;;;;;18.33;16.43;;;12.60;90.30;;;13.29;46.81;101020.06;4879299;28;101224;-53
2021/05/02 02:03:07;;;;;;;17.23;15.43;;;12.60;90.10;;;13.17;45.80;101017.91;4873084;28;97374;-56
2021/05/02 02:05:37;;;;;;;17.93;16.00;;;12.60;89.30;;;13.21;46.23;101019.53;4878361;28;97671;-56
2021/05/02 02:08:09;;;;;;;18.00;15.77;;;12.60;89.60;;;13.25;46.71;101027.28;4875403;28;107785;-57
2021/05/02 02:10:37;;;;;;;18.17;16.23;;;12.60;90.30;;;13.28;46.72;101027.16;4893016;28;99451;-58
2021/05/02 02:13:03;;;;;;;18.43;16.20;;;12.60;90.20;;;13.35;46.21;101027.78;4878648;28;97453;-54
2021/05/02 02:15:31;;;;;;;18.40;16.50;;;12.80;89.80;;;13.34;46.35;101034.00;4883324;28;97880;-56
2021/05/02 02:17:58;;;;;;;18.23;16.43;;;12.70;90.20;;;13.22;46.56;101032.72;4894310;28;97356;-54
2021/05/02 02:20:26;;;;;;;20.80;15.93;;;12.70;90.20;;;13.27;46.98;101036.03;4898182;28;97930;-56
2021/05/02 02:23:00;;;;;;;18.67;16.40;;;12.60;90.50;;;13.29;46.40;101039.47;4875782;28;101477;-56
2021/05/02 02:25:28;;;;;;;18.03;15.67;;;12.70;90.30;;;13.45;46.76;101037.03;4884833;28;98191;-54
2021/05/02 02:27:56;;;;;;;19.27;17.20;;;12.80;90.50;;;13.48;46.22;101044.91;4873869;28;97849;-55
2021/05/02 02:30:25;;;;;;;18.13;16.23;;;12.90;90.20;;;13.46;46.68;101045.88;4897478;28;98906;-55
2021/05/02 02:32:52;;;;;;;18.37;16.43;;;12.80;90.40;;;13.45;46.55;101049.44;4875044;28;98548;-57
2021/05/02 02:35:21;;;;;;;18.80;16.90;;;12.80;90.40;;;13.39;46.40;101055.84;4863128;28;98354;-57
2021/05/02 02:37:54;;;;;;;18.60;16.67;;;12.70;90.60;;;13.42;46.41;101060.16;4877305;28;100037;-55
2021/05/02 02:40:23;;;;;;;18.53;16.57;;;12.80;91.20;;;13.43;46.48;101051.28;4890922;28;97597;-54
2021/05/02 02:42:51;;;;;;;17.33;15.53;;;12.80;90.30;;;13.48;46.43;101055.50;4885796;28;97029;-56
2021/05/02 02:45:19;;;;;;;19.67;17.57;;;12.80;90.70;;;13.40;46.53;101063.75;4880401;28;97081;-55
2021/05/02 02:47:54;;;;;;;18.77;16.47;;;12.80;90.30;;;13.52;46.55;101061.53;4891476;28;99343;-57
2021/05/02 02:50:21;;;;;;;20.10;17.77;;;12.90;90.60;;;13.46;46.06;101061.78;4861187;28;98194;-56
2021/05/02 02:52:52;;;;;;;19.57;17.57;;;12.80;90.30;;;13.20;46.60;101068.13;4893310;28;98932;-57
2021/05/02 02:55:24;;;;;;;21.07;18.77;;;12.60;90.50;;;13.18;46.94;101064.66;4882641;28;99474;-57
2021/05/02 02:57:53;;;;;;;22.17;18.63;;;12.50;91.00;;;13.27;47.05;101075.75;4886917;28;99001;-56
2021/05/02 03:00:27;;;;;;;20.73;18.33;;;12.60;91.30;;;13.39;46.55;101072.63;4895957;28;98343;-54
2021/05/02 03:03:19;;;;;;;20.20;18.10;;;12.80;90.90;;;13.35;46.67;101065.72;4894179;28;97373;-56
2021/05/02 03:05:46;;;;;;;20.63;18.43;;;12.70;90.80;;;13.40;47.25;101071.69;4892170;28;97858;-56
2021/05/02 03:08:12;;;;;;;21.87;19.57;;;12.70;91.30;;;13.48;46.61;101065.22;4896411;28;97828;-56
2021/05/02 03:10:42;;;;;;;21.77;18.57;;;12.90;90.70;;;13.49;46.92;101069.59;4895059;28;99766;-54
2021/05/02 03:13:11;;;;;;;21.20;19.03;;;12.80;91.20;;;13.56;46.47;101065.75;4860585;28;97091;-54
2021/05/02 03:15:39;;;;;;;22.03;19.73;;;12.80;90.90;;;13.63;46.28;101076.06;4881566;28;100731;-55
2021/05/02 03:18:26;;;;;;;20.70;18.40;;;12.90;91.10;;;13.62;46.54;101078.78;4877602;28;97795;-56
2021/05/02 03:21:06;;;;;;;21.03;18.37;;;12.90;90.70;;;13.62;46.41;101090.25;4873004;28;102724;-55
2021/05/02 03:23:36;;;;;;;20.43;18.23;;;13.00;90.40;;;13.76;46.17;101091.47;4865008;28;99057;-55
2021/05/02 03:26:06;;;;;;;20.90;18.23;;;13.20;90.50;;;13.62;46.14;101094.69;4875104;28;98873;-55
2021/05/02 03:28:56;;;;;;;22.57;20.27;;;13.00;90.50;;;13.64;46.08;101092.81;4881184;28;99062;-55
2021/05/02 03:31:27;;;;;;;22.77;19.27;;;13.00;90.70;;;13.47;46.44;101090.00;4891993;28;102525;-55
2021/05/02 03:34:07;;;;;;;21.03;18.73;;;12.90;90.90;;;13.48;47.01;101092.59;4895329;28;97662;-54
2021/05/02 03:36:46;;;;;;;20.70;18.07;;;12.80;91.10;;;13.50;46.69;101095.19;4863132;28;97606;-57
2021/05/02 03:39:13;;;;;;;21.83;19.40;;;12.90;91.20;;;13.56;46.55;101097.56;4862595;28;101708;-56
2021/05/02 03:41:39;;;;;;;22.97;20.00;;;12.90;91.30;;;13.52;46.88;101093.31;4877340;28;98501;-57
2021/05/02 03:44:05;;;;;;;22.93;19.43;;;12.90;91.20;;;13.53;46.93;101100.34;4877294;28;97409;-56
2021/05/02 03:46:31;;;;;;;23.43;19.83;;;12.80;91.60;;;13.68;46.76;101099.72;4876257;28;99012;-57
2021/05/02 03:48:59;;;;;;;21.90;19.60;;;13.00;91.30;;;13.62;46.69;101105.28;4875992;28;97359;-57
2021/05/02 03:51:28;;;;;;;26.10;21.17;;;12.90;91.30;;;13.62;46.64;101110.59;4862226;28;98182;-56
2021/05/02 03:53:55;;;;;;;22.87;20.47;;;12.90;91.30;;;13.56;47.16;101108.16;4896601;28;98846;-55
2021/05/02 03:56:33;;;;;;;23.80;21.30;;;12.80;91.70;;;13.56;46.64;101110.81;4877403;28;99443;-57
2021/05/02 03:59:22;;;;;;;21.87;19.50;;;13.00;91.30;;;13.66;46.77;101118.34;4892401;28;98050;-56
2021/05/02 04:01:59;;;;;;;23.87;21.10;;;13.00;91.20;;;13.49;47.28;101119.97;4873442;28;98271;-58
2021/05/02 04:04:30;;;;;;;22.63;20.33;;;12.80;91.90;;;13.65;46.95;101115.75;4893865;28;97010;-56
2021/05/02 04:07:01;;;;;;;22.17;19.90;;;13.00;91.90;;;13.68;47.11;101128.88;4874480;28;98244;-54
2021/05/02 04:09:27;;;;;;;23.40;20.97;;;13.00;91.90;;;13.67;47.12;101129.81;4864375;28;99251;-57
2021/05/02 04:11:53;;;;;;;23.70;21.03;;;13.00;91.80;;;13.79;46.91;101129.31;4858881;28;98469;-54
2021/05/02 04:14:20;;;;;;;23.40;20.90;;;13.10;91.80;;;13.71;47.06;101131.41;4881420;28;98637;-52
2021/05/02 04:16:58;;;;;;;21.97;19.63;;;13.00;92.00;;;14.02;46.03;101141.59;4857662;28;97493;-57
2021/05/02 04:19:26;;;;;;;22.13;19.80;;;13.40;90.80;;;13.77;46.56;101136.47;4878953;28;98780;-55
2021/05/02 04:21:52;;;;;;;23.03;20.37;;;13.10;91.50;;;13.71;47.08;101136.69;4858550;28;99355;-55
2021/05/02 04:24:18;;;;;;;19.13;17.03;;;13.00;91.70;;;13.54;47.61;101140.03;4876819;28;97263;-56
2021/05/02 04:26:46;;;;;;;22.83;19.43;;;12.80;92.30;;;13.57;47.59;101139.91;4889627;28;97110;-57
2021/05/02 04:29:12;;;;;;;22.63;20.23;;;12.80;92.60;;;13.49;47.60;101149.97;4891805;28;100034;-54
2021/05/02 04:31:38;;;;;;;23.80;20.43;;;12.70;92.50;;;13.52;47.24;101156.94;4877959;28;99352;-57
2021/05/02 04:34:20;;;;;;;23.90;20.17;;;12.90;92.20;;;13.46;47.70;101157.19;4874613;28;97164;-57
2021/05/02 04:36:47;;;;;;;23.20;19.03;;;12.70;92.50;;;13.62;47.21;101163.59;4853852;28;98040;-56
2021/05/02 04:39:14;;;;;;;21.13;18.97;;;12.80;92.70;;;13.72;47.23;101159.63;4892258;28;100802;-55
2021/05/02 04:41:40;;;;;;;22.10;19.63;;;13.00;92.00;;;13.84;46.69;101168.88;4891654;28;99480;-57
2021/05/02 04:44:06;;;;;;;22.67;19.90;;;13.10;92.20;;;13.76;46.96;101166.56;4889561;28;96945;-55
2021/05/02 04:46:33;;;;;;;22.67;20.27;;;13.00;91.90;;;13.83;46.73;101162.72;4897349;28;97789;-53
2021/05/02 04:49:01;;;;;;;20.43;18.23;;;13.00;92.20;;;13.86;46.56;101170.53;4870765;28;98200;-56
2021/05/02 04:51:27;;;;;;;20.63;18.43;;;13.10;92.00;;;13.84;46.17;101169.75;4878694;28;97224;-56
2021/05/02 04:53:53;;;;;;;18.63;16.57;;;13.10;91.70;;;13.87;46.54;101172.25;4885943;28;97431;-56
2021/05/02 04:56:20;;;;;;;18.20;16.20;;;13.10;91.90;;;13.94;46.17;101175.53;4895766;28;98396;-55
2021/05/02 04:58:46;;;;;;;12.10;10.53;;;13.20;91.90;;;14.08;45.95;101174.97;4884775;28;100542;-57
2021/05/02 05:01:15;;;;;;;20.00;16.07;;;13.30;91.50;;;14.03;46.13;101176.94;4897634;28;99446;-55
2021/05/02 05:03:43;;;;;;;19.10;16.97;;;13.40;91.00;;;14.12;45.80;101180.06;4897830;28;98595;-53
2021/05/02 05:06:09;;;;;;;20.20;15.73;;;13.40;91.20;;;14.13;45.89;101186.25;4873844;28;97483;-57
2021/05/02 05:08:35;;;;;;;19.87;17.00;;;13.50;90.90;;;13.99;46.03;101192.97;4894772;28;99355;-53
2021/05/02 05:11:01;;;;;;;17.37;15.50;;;13.30;90.90;;;14.00;46.05;101194.69;4869849;28;99503;-55
2021/05/02 05:13:28;;;;;;;18.17;16.27;;;13.30;90.90;;;13.94;46.17;101191.44;4878827;28;97034;-58
2021/05/02 05:15:58;;;;;;;18.67;15.87;;;13.30;90.90;;;13.86;46.10;101194.41;4891888;28;99735;-53
2021/05/02 05:18:24;;;;;;;19.70;16.13;;;13.20;91.30;;;13.96;46.07;101195.75;4879132;28;97761;-53
2021/05/02 05:20:52;;;;;;;12.93;11.60;;;13.40;90.60;;;13.94;46.43;101196.75;4890375;28;99152;-57
2021/05/02 05:23:18;;;;;;;18.30;15.73;;;13.30;91.50;;;13.72;46.27;101196.75;4863329;28;96932;-57
2021/05/02 05:25:44;;;;;;;19.10;15.90;;;13.20;91.10;;;13.78;46.48;101207.13;4889016;28;98473;-57
2021/05/02 05:28:10;;;;;;;19.33;14.90;;;13.10;91.50;;;13.86;45.78;101206.81;4879152;28;99731;-53
2021/05/02 05:30:36;;;;;;;18.77;15.00;;;13.30;90.50;;;13.75;46.42;101207.25;4893454;28;98249;-56
2021/05/02 05:33:04;;;;;;;18.70;15.10;;;13.20;91.00;;;13.80;46.68;101207.91;4885862;28;99888;-57
2021/05/02 05:35:31;;;;;;;17.77;14.83;;;13.20;91.30;;;13.60;46.37;101218.47;4886726;28;97611;-57
2021/05/02 05:37:57;;;;;;;17.13;13.30;;;13.00;91.00;;;13.46;47.18;101220.78;4894613;28;96984;-55
2021/05/02 05:40:25;;;;;;;17.03;13.40;;;12.80;91.40;;;13.56;46.55;101220.34;4892282;28;100405;-55
2021/05/02 05:42:51;;;;;;;13.13;10.33;;;12.90;91.30;;;13.46;46.94;101223.44;4898164;28;99805;-52
2021/05/02 05:45:21;;;;;;;17.40;13.73;;;12.90;91.60;;;13.53;47.01;101227.56;4918092;28;104176;-54
2021/05/02 05:47:49;;;;;;;18.33;14.40;;;12.90;91.40;;;13.37;46.75;101222.84;4884650;28;100718;-53
2021/05/02 05:50:15;;;;;;;15.60;13.03;;;12.90;91.40;;;13.46;47.34;101226.09;4903843;28;99234;-52
2021/05/02 05:52:42;;;;;;;16.80;12.30;;;12.80;92.10;;;13.21;47.44;101232.31;4905563;28;97831;-58
2021/05/02 05:55:11;;;;;;;17.80;12.63;;;12.60;91.80;;;13.17;47.40;101228.03;4911846;28;97559;-56
2021/05/02 05:57:37;;;;;;;17.17;12.37;;;12.60;91.90;;;13.21;47.69;101227.00;4898970;28;100135;-51
2021/05/02 06:00:09;;;;;;;14.87;11.57;;;12.60;92.00;;;13.26;47.45;101235.66;4892203;28;99807;-53
2021/05/02 06:02:35;;;;;;;13.10;11.50;;;12.60;91.70;;;13.17;46.82;101241.28;4897141;28;97287;-51
2021/05/02 06:05:03;;;;;;;13.43;10.60;;;12.60;91.40;;;13.04;47.19;101242.63;4890893;28;99558;-53
2021/05/02 06:07:28;;;;;;;15.87;10.87;;;12.50;91.40;;;12.92;47.73;101245.72;4886253;28;96666;-56
2021/05/02 06:09:54;;;;;;;15.47;11.00;;;12.30;91.80;;;13.01;46.83;101240.06;4891638;28;97455;-56
2021/05/02 06:12:20;;;;;;;12.83;10.43;;;12.50;91.50;;;12.89;47.72;101241.41;4910823;28;97981;-54
2021/05/02 06:14:48;;;;;;;12.90;10.10;;;12.40;92.00;;;13.03;47.50;101246.22;4912840;28;97376;-51
2021/05/02 06:17:15;;;;;;;14.07;10.30;;;12.40;91.60;;;13.06;47.93;101248.75;4897235;28;97392;-55
2021/05/02 06:19:41;;;;;;;11.97;9.40;;;12.40;92.00;;;13.15;47.69;101252.81;4885907;28;97160;-55
2021/05/02 06:22:06;;;;;;;10.13;8.80;;;12.60;91.70;;;13.21;46.88;101242.91;4897812;28;97105;-56
2021/05/02 06:24:32;;;;;;;10.27;9.00;;;12.70;90.90;;;13.23;46.04;101251.66;4920741;28;96958;-56
2021/05/02 06:26:59;;;;;;;9.73;8.33;;;12.80;90.60;;;13.10;45.87;101253.00;4909768;28;99360;-53
2021/05/02 06:29:24;;;;;;;10.07;8.67;;;12.60;90.60;;;13.22;46.97;101260.53;4904727;28;97328;-53
2021/05/02 06:31:50;;;;;;;10.20;7.80;;;12.60;91.10;;;13.11;45.81;101262.66;4909475;28;97114;-55
2021/05/02 06:34:16;;;;;;;13.40;7.60;;;12.50;90.70;;;13.18;47.12;101263.31;4916526;28;98403;-52
2021/05/02 06:36:42;;;;;;;13.60;7.40;;;12.50;91.30;;;12.99;46.06;101265.75;4910637;28;97586;-61
2021/05/02 06:39:09;;;;;;;12.30;7.73;;;12.50;90.70;;;12.89;46.54;101269.69;4878497;28;101352;-56
2021/05/02 06:41:38;;;;;;;7.87;7.10;;;12.30;90.90;;;12.84;46.80;101274.25;4893481;28;98341;-50
2021/05/02 06:44:04;;;;;;;11.43;7.93;;;12.20;91.40;;;12.90;46.74;101263.47;4905635;28;97112;-51
2021/05/02 06:46:31;;;;;;;10.90;7.20;;;12.40;91.40;;;13.13;46.22;101270.56;4903304;28;98984;-54
2021/05/02 06:49:02;;;;;;;10.30;7.50;;;12.60;91.30;;;13.03;46.84;101267.41;4888723;28;97215;-53
2021/05/02 06:51:29;;;;;;;12.17;8.00;;;12.50;91.20;;;12.98;47.29;101271.97;4898061;28;96821;-55
2021/05/02 06:53:57;;;;;;;11.17;7.43;;;12.40;91.20;;;13.09;46.74;101262.72;4895608;28;98228;-53
2021/05/02 06:56:25;;;;;;;9.33;7.03;;;12.60;91.20;;;13.17;46.27;101267.75;4900614;28;97280;-54
2021/05/02 06:58:53;;;;;;;9.80;7.43;;;12.60;90.90;;;13.04;46.61;101271.78;4912145;28;101409;-52
2021/05/02 07:01:19;;;;;;;9.20;7.03;;;12.50;91.00;;;13.01;47.84;101278.00;4904368;28;97130;-51
2021/05/02 07:03:45;;;;;;;8.73;6.97;;;12.40;91.90;;;13.09;46.68;101269.81;4912198;28;96978;-53
2021/05/02 07:06:11;;;;;;;9.83;6.73;;;12.60;91.30;;;13.17;47.08;101278.34;4884283;28;99547;-56
2021/05/02 07:08:37;;;;;;;12.80;7.50;;;12.60;91.20;;;12.90;46.66;101279.34;4915718;28;98928;-57
2021/05/02 07:11:03;;;;;;;10.10;6.40;;;12.50;91.00;;;13.15;47.44;101279.31;4910256;28;97323;-52
2021/05/02 07:13:30;;;;;;;9.23;6.50;;;12.60;91.50;;;12.91;46.49;101281.06;4901435;28;97380;-53
2021/05/02 07:15:59;;;;;;;7.07;4.77;;;12.50;91.00;;;13.13;47.01;101283.78;4890988;28;97176;-58
2021/05/02 07:18:32;;;;;;;10.33;6.07;;;12.70;90.80;;;12.88;46.36;101287.34;4894870;28;99405;-54
2021/05/02 07:20:58;;;;;;;5.97;3.87;;;12.50;90.40;;;12.89;47.86;101285.56;4878105;28;97250;-54
2021/05/02 07:23:24;;;;;;;6.33;3.97;;;12.40;91.10;;;12.75;45.70;101286.03;4903487;28;97519;-54
2021/05/02 07:25:50;;;;;;;8.30;4.37;;;12.40;89.50;;;12.93;45.34;101279.22;4906099;28;99768;-56
2021/05/02 07:28:16;;;;;;;9.13;4.63;;;12.60;89.20;;;13.00;46.56;101289.53;4905517;28;97089;-55
2021/05/02 07:30:41;;;;;;;10.63;4.20;;;12.70;89.50;;;13.02;46.27;101294.81;4899840;28;97485;-57
2021/05/02 07:33:07;;;;;;;8.53;3.57;;;12.60;90.00;;;12.86;44.43;101293.59;4913079;28;97999;-58
2021/05/02 07:35:33;;;;;;;7.70;3.47;;;12.50;88.00;;;12.96;46.06;101297.66;4895551;28;99908;-52
2021/05/02 07:37:59;;;;;;;6.73;3.40;;;12.50;89.80;;;12.68;44.81;101301.25;4899769;28;98218;-54
2021/05/02 07:40:25;;;;;;;7.23;3.37;;;12.30;88.40;;;13.08;46.28;101302.50;4911656;28;97216;-54
2021/05/02 07:42:51;;;;;;;8.73;3.20;;;12.60;90.10;;;13.10;44.32;101303.31;4912510;28;97075;-52
2021/05/02 07:45:17;;;;;;;6.57;3.43;;;12.70;88.10;;;13.04;45.54;101306.19;4893391;28;115044;-56
2021/05/02 07:47:43;;;;;;;5.63;3.03;;;12.70;87.80;;;13.10;44.11;101308.63;4878551;28;97301;-57
2021/05/02 07:50:09;;;;;;;7.10;3.40;;;12.70;87.60;;;12.83;44.04;101315.75;4899646;28;97270;-55
2021/05/02 07:52:35;;;;;;;7.83;3.20;;;12.40;87.50;;;13.01;43.78;101311.59;4894968;28;100879;-55
2021/05/02 07:55:01;;;;;;;4.43;2.50;;;12.60;86.50;;;13.23;43.88;101304.66;4911506;28;96776;-56
2021/05/02 07:57:27;;;;;;;5.43;2.67;;;12.90;88.30;;;13.29;44.13;101304.41;4908924;28;98124;-56
2021/05/02 07:59:53;;;;;;;5.17;2.50;;;13.00;87.80;;;13.30;46.04;101316.72;4895072;28;98829;-54
2021/05/02 08:02:19;;;;;;;6.87;3.10;;;12.90;88.30;;;13.28;44.45;101318.56;4912025;28;97054;-56
2021/05/02 08:04:46;;;;;;;5.47;3.43;;;12.90;86.30;;;13.58;45.73;101321.88;4912446;28;97118;-56
2021/05/02 08:07:11;;;;;;;6.87;3.40;;;13.20;89.70;;;13.61;43.30;101320.94;4912405;28;115041;-55
2021/05/02 08:09:37;;;;;;;7.47;2.87;;;13.30;84.70;;;13.55;43.39;101321.13;4898563;28;97364;-56
2021/05/02 08:12:04;;;;;;;5.77;2.90;;;13.20;84.30;;;13.49;41.87;101326.69;4894319;28;97148;-56
2021/05/02 08:14:31;;;;;;;5.00;3.40;;;13.10;83.60;;;13.75;41.98;101318.63;4906389;28;97052;-53
2021/05/02 08:16:57;;;;;;;5.63;3.17;;;13.40;84.20;;;13.85;43.77;101319.09;4907489;28;97882;-55
2021/05/02 08:19:23;;;;;;;9.80;3.57;;;13.50;84.20;;;13.81;40.88;101318.38;4878111;28;96914;-56
2021/05/02 08:21:50;;;;;;;7.93;3.30;;;13.50;81.80;;;13.76;40.52;101315.03;4892675;28;97210;-57
2021/05/02 08:24:16;;;;;;;5.57;3.07;;;13.40;80.40;;;13.95;41.10;101326.66;4899127;28;96938;-55
2021/05/02 08:26:42;;;;;;;12.20;3.63;;;13.70;82.00;;;13.81;40.98;101318.38;4879826;28;97228;-57
2021/05/02 08:29:08;;;;;;;7.60;3.23;;;13.50;80.20;;;13.85;42.62;101325.28;4893661;28;97429;-51
2021/05/02 08:31:34;;;;;;;4.83;3.20;;;13.50;81.70;;;13.61;41.45;101328.88;4917442;28;97370;-54
2021/05/02 08:34:00;;;;;;;7.37;3.10;;;13.20;81.90;;;13.40;42.91;101334.03;4888552;28;100158;-56
2021/05/02 08:36:26;;;;;;;10.60;3.43;;;13.00;83.10;;;13.27;42.60;101327.44;4912981;28;97396;-56
2021/05/02 08:38:52;;;;;;;6.37;3.07;;;12.80;83.10;;;13.21;42.33;101338.28;4907806;28;97245;-53
2021/05/02 08:41:18;;;;;;;5.97;3.37;;;12.80;83.40;;;13.23;42.83;101339.09;4907333;28;98911;-57
2021/05/02 08:43:52;;;;;;;5.50;2.87;;;12.80;84.20;;;13.55;45.43;101331.75;4908557;28;98122;-57
2021/05/02 08:46:18;;;;;;;5.20;3.50;;;13.00;88.40;;;13.50;44.10;101341.66;4890569;28;97557;-57
2021/05/02 08:48:44;;;;;;;4.97;2.80;;;13.10;83.90;;;13.66;41.87;101340.16;4891534;28;97540;-55
2021/05/02 08:51:10;;;;;;;4.97;3.03;;;13.30;83.00;;;13.60;41.82;101335.97;4900423;28;97488;-54
2021/05/02 08:53:36;;;;;;;5.13;3.23;;;13.30;81.20;;;13.65;45.16;101333.13;4898175;28;112269;-50
2021/05/02 08:56:04;;;;;;;4.70;2.57;;;13.20;84.20;;;13.94;44.29;101330.22;4893062;28;99620;-54
2021/05/02 08:58:30;;;;;;;5.27;2.73;;;13.50;86.60;;;14.06;41.22;101328.03;4892414;28;98413;-55
2021/05/02 09:00:58;;;;;;;5.53;2.17;;;13.70;81.90;;;14.32;43.98;101327.84;4909989;28;96956;-54
2021/05/02 09:03:43;;;;;;;5.17;3.13;;;13.90;85.00;;;14.18;38.65;101340.81;4896659;28;97675;-54
2021/05/02 09:06:18;;;;;;;4.47;3.03;;;13.90;76.70;;;13.78;39.78;101345.00;4908510;28;102269;-53
2021/05/02 09:08:44;;;;;;;8.50;3.70;;;13.50;77.60;;;13.72;41.30;101339.06;4891846;28;98059;-58
2021/05/02 09:11:11;;;;;;;5.07;3.00;;;13.40;79.10;;;13.89;42.91;101332.22;4903424;28;97406;-56
2021/05/02 09:13:50;;;;;;;6.73;3.47;;;13.50;83.70;;;13.49;40.53;101346.09;4877432;28;99062;-57
2021/05/02 09:16:17;;;;;;;5.73;3.60;;;13.20;79.60;;;13.45;41.50;101340.94;4899371;28;102712;-55
2021/05/02 09:18:49;;;;;;;8.47;3.87;;;13.10;82.80;;;13.39;42.02;101342.03;4916635;28;97559;-57
2021/05/02 09:21:16;;;;;;;5.93;3.47;;;13.00;81.60;;;13.28;41.00;101339.78;4902092;28;97086;-54
2021/05/02 09:23:43;;;;;;;4.63;3.40;;;12.90;80.50;;;13.37;42.52;101347.41;4898597;28;99799;-56
2021/05/02 09:26:25;;;;;;;5.33;3.50;;;13.00;82.30;;;13.48;41.75;101340.84;4894796;28;104415;-53
2021/05/02 09:29:02;;;;;;;6.47;2.60;;;13.10;82.30;;;13.72;40.67;101344.34;4915865;28;96770;-56
2021/05/02 09:31:34;;;;;;;5.60;2.67;;;13.50;80.00;;;13.66;43.46;101340.16;4901449;28;97294;-55
2021/05/02 09:34:13;;;;;;;6.87;3.03;;;13.30;81.60;;;13.58;40.04;101334.25;4904721;28;98377;-54
2021/05/02 09:37:02;;;;;;;7.37;3.23;;;13.30;78.50;;;13.63;42.05;101348.22;4895428;28;98015;-54
2021/05/02 09:39:56;;;;;;;5.17;3.40;;;13.30;77.90;;;13.68;39.43;101343.63;4889862;28;97046;-56
2021/05/02 09:42:30;;;;;;;5.13;3.57;;;13.40;77.60;;;13.54;39.41;101345.91;4895748;28;97302;-54
2021/05/02 09:44:58;;;;;;;5.07;3.73;;;13.20;77.70;;;13.30;38.75;101358.25;4900203;28;99234;-53
2021/05/02 09:47:42;;;;;;;7.10;3.60;;;13.00;76.60;;;13.53;40.06;101349.50;4898491;28;99440;-56
2021/05/02 09:50:15;;;;;;;1.60;1.33;;;13.20;79.00;;;13.59;41.28;101350.13;4903309;28;100554;-54
2021/05/02 09:52:55;;;;;;;4.43;3.13;;;13.30;83.20;;;13.73;40.61;101348.72;4898249;28;97453;-51
2021/05/02 09:55:30;;;;;;;6.90;3.40;;;13.50;81.10;;;13.85;39.76;101343.84;4898865;28;100466;-52
2021/05/02 09:58:06;;;;;;;5.60;3.30;;;13.60;78.20;;;13.93;39.87;101344.41;4909243;28;97078;-53
2021/05/02 10:00:39;;;;;;;5.93;2.90;;;13.70;77.80;;;14.32;39.98;101341.13;4895438;28;99755;-55
2021/05/02 10:03:15;;;;;;;5.77;2.93;;;14.00;82.50;;;14.19;37.64;101337.22;4911320;28;97747;-53
2021/05/02 10:06:10;;;;;;;3.27;2.20;;;14.10;73.50;;;14.18;37.46;101348.78;4912897;28;98558;-53
2021/05/02 10:08:40;;;;;;;4.17;2.93;;;14.00;75.20;;;14.09;37.65;101349.13;4891135;28;104615;-55
2021/05/02 10:11:10;;;;;;;8.30;2.87;;;13.80;73.50;;;13.76;38.64;101352.16;4893181;28;97377;-53